Aviation Digital Data Service (ADDS)

Output produced by METARs form (0613 UTC 03 July 2015)
found at http://www.aviationweather.gov/adds/metars/
 
KMIV 030554Z AUTO 00000KT 3/4SM BR VV007 16/16 A2991 RMK AO2 SLP127 T01610156 10206 20161 51007
KMIV 030523Z 0305/0406 00000KT 1/2SM FG OVC005 
     FM031400 VRB03KT 3SM BR BKN010 BKN250 
     FM031500 12006KT P6SM FEW020 BKN250